createdAt,value
2022-12-15T00:02:20.098Z,-12.53
2022-12-15T00:05:07.187Z,-12.56
2022-12-15T00:07:54.292Z,-12.38
2022-12-15T00:10:41.365Z,-12.22
2022-12-15T00:13:29.662Z,-12.16
2022-12-15T00:16:18.862Z,-12.31
2022-12-15T00:19:05.911Z,-12.43
2022-12-15T00:21:53.220Z,-12.52
2022-12-15T00:24:40.142Z,-12.40
2022-12-15T00:27:27.343Z,-12.46
2022-12-15T00:30:14.492Z,-12.55
2022-12-15T00:33:03.270Z,-12.70
2022-12-15T00:35:50.130Z,-12.81
2022-12-15T00:38:37.474Z,-12.78
2022-12-15T00:41:07.265Z,-12.91
2022-12-15T00:43:37.629Z,-12.84
2022-12-15T00:46:25.120Z,-12.68
2022-12-15T00:48:56.504Z,-12.74
2022-12-15T00:51:43.290Z,-12.89
2022-12-15T00:54:30.975Z,-12.92
2022-12-15T00:57:17.942Z,-12.82
2022-12-15T01:00:05.320Z,-12.77
2022-12-15T01:02:52.365Z,-12.76
2022-12-15T01:05:41.271Z,-12.79
2022-12-15T01:08:28.081Z,-12.71
2022-12-15T01:11:19.183Z,-12.58
2022-12-15T01:14:07.202Z,-12.59
2022-12-15T01:16:54.632Z,-12.68
2022-12-15T01:19:41.423Z,-12.66
2022-12-15T01:22:12.851Z,-12.66
2022-12-15T01:24:42.564Z,-12.59
2022-12-15T01:27:12.482Z,-12.53
2022-12-15T01:29:42.232Z,-12.56
2022-12-15T01:32:12.141Z,-12.52
2022-12-15T01:34:41.651Z,-12.53
2022-12-15T01:37:13.080Z,-12.65
2022-12-15T01:40:00.281Z,-12.70
2022-12-15T01:42:30.281Z,-12.85
2022-12-15T01:45:14.674Z,-12.96
2022-12-15T01:47:44.792Z,-12.82
2022-12-15T01:50:15.323Z,-12.80
2022-12-15T01:52:47.263Z,-12.88
2022-12-15T01:55:20.587Z,-12.78
2022-12-15T01:57:53.809Z,-12.75
2022-12-15T02:00:23.575Z,-12.70
2022-12-15T02:02:53.706Z,-12.70
2022-12-15T02:05:23.643Z,-12.73
2022-12-15T02:07:55.021Z,-12.89
2022-12-15T02:10:26.683Z,-13.03
2022-12-15T02:13:02.083Z,-12.95
2022-12-15T02:15:34.963Z,-13.07
2022-12-15T02:18:08.052Z,-13.17
2022-12-15T02:20:48.952Z,-13.31
2022-12-15T02:23:37.551Z,-13.41
2022-12-15T02:26:24.733Z,-13.43
2022-12-15T02:29:01.580Z,-13.51
2022-12-15T02:31:52.151Z,-13.47
2022-12-15T02:34:25.015Z,-13.46
2022-12-15T02:36:57.451Z,-13.45
2022-12-15T02:39:27.522Z,-13.44
2022-12-15T02:41:57.023Z,-13.26
2022-12-15T02:44:30.082Z,-13.20
2022-12-15T02:47:20.711Z,-13.16
2022-12-15T02:50:05.704Z,-13.19
2022-12-15T02:52:44.174Z,-13.22
2022-12-15T02:55:19.103Z,-13.31
2022-12-15T02:57:56.104Z,-13.39
2022-12-15T03:00:26.201Z,-13.47
2022-12-15T03:02:56.953Z,-13.41
2022-12-15T03:05:27.534Z,-13.30
2022-12-15T03:07:58.966Z,-13.34
2022-12-15T03:10:29.213Z,-13.20
2022-12-15T03:12:59.201Z,-13.18
2022-12-15T03:15:34.922Z,-13.10
2022-12-15T03:18:05.252Z,-13.09
2022-12-15T03:20:35.081Z,-13.16
2022-12-15T03:23:06.232Z,-13.22
2022-12-15T03:25:36.253Z,-13.20
2022-12-15T03:28:06.035Z,-13.26
2022-12-15T03:30:35.954Z,-13.47
2022-12-15T03:33:05.785Z,-13.52
2022-12-15T03:35:35.785Z,-13.55
2022-12-15T03:38:06.913Z,-13.53
2022-12-15T03:40:36.792Z,-13.58
2022-12-15T03:43:06.774Z,-13.59
2022-12-15T03:45:36.750Z,-13.46
2022-12-15T03:48:06.555Z,-13.38
2022-12-15T03:50:36.563Z,-13.50
2022-12-15T03:53:07.726Z,-13.61
2022-12-15T03:55:37.698Z,-13.64
2022-12-15T03:58:07.322Z,-13.62
2022-12-15T04:00:37.342Z,-13.63
2022-12-15T04:03:07.104Z,-13.63
2022-12-15T04:05:37.264Z,-13.49
2022-12-15T04:08:08.362Z,-13.47
2022-12-15T04:10:38.285Z,-13.57
2022-12-15T04:13:09.003Z,-13.79
2022-12-15T04:15:40.104Z,-13.91
2022-12-15T04:18:11.267Z,-13.93
2022-12-15T04:20:40.624Z,-13.98
2022-12-15T04:23:11.882Z,-13.96
2022-12-15T04:25:59.107Z,-13.98
2022-12-15T04:28:45.864Z,-13.99
2022-12-15T04:31:33.946Z,-13.97
2022-12-15T04:34:23.081Z,-13.93
2022-12-15T04:37:11.882Z,-13.87
2022-12-15T04:40:01.553Z,-13.68
2022-12-15T04:42:50.413Z,-13.73
2022-12-15T04:45:38.236Z,-13.90
2022-12-15T04:48:25.404Z,-13.82
2022-12-15T04:51:12.183Z,-13.77
2022-12-15T04:53:59.276Z,-13.70
2022-12-15T04:56:47.451Z,-13.88
2022-12-15T04:59:37.111Z,-13.88
2022-12-15T05:02:24.165Z,-13.76
2022-12-15T05:05:11.451Z,-13.68
2022-12-15T05:07:58.473Z,-13.74
2022-12-15T05:10:45.602Z,-13.77
2022-12-15T05:13:34.245Z,-13.79
2022-12-15T05:16:23.763Z,-13.77
2022-12-15T05:19:10.704Z,-13.90
2022-12-15T05:21:58.151Z,-13.91
2022-12-15T05:24:45.083Z,-14.02
2022-12-15T05:27:32.294Z,-14.10
2022-12-15T05:30:20.484Z,-14.15
2022-12-15T05:32:50.484Z,-14.14
2022-12-15T05:35:20.053Z,-14.09
2022-12-15T05:37:50.774Z,-14.06
2022-12-15T05:40:20.353Z,-14.07
2022-12-15T05:42:50.465Z,-14.01
2022-12-15T05:45:21.825Z,-13.93
2022-12-15T05:47:52.403Z,-13.87
2022-12-15T05:50:22.950Z,-13.85
2022-12-15T05:52:53.043Z,-13.91
2022-12-15T05:55:22.644Z,-13.93
2022-12-15T05:57:52.973Z,-13.84
2022-12-15T06:00:24.573Z,-13.97
2022-12-15T06:02:54.684Z,-14.05
2022-12-15T06:05:24.223Z,-14.14
2022-12-15T06:07:54.804Z,-14.17
2022-12-15T06:10:24.323Z,-14.19
2022-12-15T06:12:54.561Z,-14.08
2022-12-15T06:15:25.711Z,-14.05
2022-12-15T06:17:56.315Z,-13.97
2022-12-15T06:20:32.306Z,-13.92
2022-12-15T06:23:03.805Z,-13.85
2022-12-15T06:25:33.814Z,-13.76
2022-12-15T06:28:03.834Z,-13.73
2022-12-15T06:30:35.175Z,-13.80
2022-12-15T06:33:05.866Z,-13.84
2022-12-15T06:35:37.577Z,-13.83
2022-12-15T06:38:08.029Z,-13.98
2022-12-15T06:40:38.215Z,-13.98
2022-12-15T06:43:09.031Z,-13.97
2022-12-15T06:45:40.115Z,-14.00
2022-12-15T06:48:10.116Z,-13.91
2022-12-15T06:50:41.294Z,-13.85
2022-12-15T06:53:11.335Z,-13.88
2022-12-15T06:55:41.004Z,-13.81
2022-12-15T06:58:12.511Z,-13.71
2022-12-15T07:00:44.317Z,-13.70
2022-12-15T07:03:15.657Z,-13.76
2022-12-15T07:05:45.724Z,-13.81
2022-12-15T07:08:17.057Z,-13.74
2022-12-15T07:10:46.784Z,-13.68
2022-12-15T07:13:17.155Z,-13.76
2022-12-15T07:15:50.380Z,-13.71
2022-12-15T07:18:20.498Z,-13.62
2022-12-15T07:20:50.094Z,-13.55
2022-12-15T07:23:29.584Z,-13.54
2022-12-15T07:26:11.819Z,-13.53
2022-12-15T07:28:42.384Z,-13.53
2022-12-15T07:31:13.646Z,-13.57
2022-12-15T07:33:43.771Z,-13.61
2022-12-15T07:36:13.595Z,-13.46
2022-12-15T07:38:50.847Z,-13.31
2022-12-15T07:41:21.497Z,-13.47
2022-12-15T07:43:51.393Z,-13.40
2022-12-15T07:46:24.441Z,-13.45
2022-12-15T07:48:54.816Z,-13.47
2022-12-15T07:51:24.656Z,-13.42
2022-12-15T07:53:54.753Z,-13.35
2022-12-15T07:56:24.756Z,-13.33
2022-12-15T07:58:54.848Z,-13.20
2022-12-15T08:01:26.376Z,-13.04
2022-12-15T08:03:56.999Z,-13.09
2022-12-15T08:06:26.675Z,-12.99
2022-12-15T08:08:56.706Z,-12.84
2022-12-15T08:11:26.547Z,-12.85
2022-12-15T08:14:05.745Z,-12.80
2022-12-15T08:16:41.410Z,-12.70
2022-12-15T08:19:12.646Z,-12.54
2022-12-15T08:21:42.961Z,-12.42
2022-12-15T08:24:13.676Z,-12.32
2022-12-15T08:26:44.206Z,-12.27
2022-12-15T08:32:11.561Z,-12.16
2022-12-15T08:34:42.542Z,-12.05
2022-12-15T08:37:12.605Z,-11.96
2022-12-15T08:39:42.847Z,-11.89
2022-12-15T08:42:12.703Z,-11.78
2022-12-15T08:44:42.744Z,-11.68
2022-12-15T08:47:15.322Z,-11.57
2022-12-15T08:49:45.453Z,-11.41
2022-12-15T08:52:15.104Z,-11.23
2022-12-15T08:54:44.942Z,-11.17
2022-12-15T08:57:14.978Z,-11.14
2022-12-15T08:59:45.088Z,-11.04
2022-12-15T09:02:16.817Z,-10.89
2022-12-15T09:04:47.209Z,-10.80
2022-12-15T09:07:16.895Z,-10.52
2022-12-15T09:09:47.380Z,-9.89
2022-12-15T09:12:17.219Z,-9.38
2022-12-15T09:14:47.085Z,-8.36
2022-12-15T09:17:18.519Z,-8.04
2022-12-15T09:19:48.646Z,-7.84
2022-12-15T09:22:19.472Z,-7.41
2022-12-15T09:24:51.028Z,-7.76
2022-12-15T09:27:21.274Z,-7.88
2022-12-15T09:29:51.166Z,-8.23
2022-12-15T09:32:22.757Z,-7.88
2022-12-15T09:34:53.075Z,-7.40
2022-12-15T09:37:23.566Z,-7.33
2022-12-15T09:39:53.761Z,-7.37
2022-12-15T09:42:27.453Z,-7.46
2022-12-15T09:45:01.412Z,-7.28
2022-12-15T09:47:36.413Z,-7.14
2022-12-15T09:50:08.932Z,-6.96
2022-12-15T09:52:44.581Z,-6.97
2022-12-15T09:55:19.375Z,-6.91
2022-12-15T09:57:53.033Z,-6.85
2022-12-15T10:00:26.014Z,-6.84
2022-12-15T10:03:13.702Z,-6.78
2022-12-15T10:08:41.882Z,-7.00
2022-12-15T10:11:20.202Z,-7.10
2022-12-15T10:13:53.730Z,-7.03
2022-12-15T10:16:29.713Z,-6.84
2022-12-15T10:19:04.203Z,-6.80
2022-12-15T10:21:36.723Z,-6.66
2022-12-15T10:25:07.452Z,-6.55
2022-12-15T10:27:24.867Z,-6.48
2022-12-15T10:30:00.022Z,-6.40
2022-12-15T10:32:40.925Z,-6.25
2022-12-15T10:35:17.792Z,-6.17
2022-12-15T10:37:50.189Z,-6.06
2022-12-15T10:40:21.164Z,-5.97
2022-12-15T10:42:51.809Z,-5.87
2022-12-15T10:45:37.416Z,-5.89
2022-12-15T10:48:09.368Z,-5.73
2022-12-15T10:50:39.047Z,-5.69
2022-12-15T10:53:31.801Z,-5.64
2022-12-15T10:56:02.581Z,-5.50
2022-12-15T10:58:32.642Z,-5.37
2022-12-15T11:01:17.262Z,-5.32
2022-12-15T11:03:51.894Z,-5.15
2022-12-15T11:06:23.393Z,-5.17
2022-12-15T11:08:56.157Z,-5.12
2022-12-15T11:11:45.158Z,-4.94
2022-12-15T11:14:17.260Z,-4.85
2022-12-15T11:16:50.133Z,-4.81
2022-12-15T11:19:33.015Z,-4.72
2022-12-15T11:22:05.350Z,-4.57
2022-12-15T11:24:40.590Z,-4.55
2022-12-15T11:27:17.640Z,-4.51
2022-12-15T11:29:59.177Z,-4.47
2022-12-15T11:32:30.238Z,-4.36
2022-12-15T11:35:01.066Z,-4.31
2022-12-15T11:37:41.278Z,-4.36
2022-12-15T11:40:28.932Z,-4.25
2022-12-15T11:43:09.121Z,-4.14
2022-12-15T11:45:43.960Z,-4.08
2022-12-15T11:48:17.690Z,-4.05
2022-12-15T11:50:53.849Z,-4.04
2022-12-15T11:53:38.321Z,-4.04
2022-12-15T11:56:14.011Z,-4.02
2022-12-15T11:58:59.639Z,-4.45
2022-12-15T12:01:55.363Z,-4.09
2022-12-15T12:04:30.330Z,-4.13
2022-12-15T12:07:09.161Z,-4.13
2022-12-15T12:09:41.808Z,-4.05
2022-12-15T12:12:17.810Z,-4.03
2022-12-15T12:14:53.551Z,-4.09
2022-12-15T12:17:32.560Z,-4.15
2022-12-15T12:22:59.109Z,-4.12
2022-12-15T12:25:28.728Z,-4.14
2022-12-15T12:28:01.899Z,-4.15
2022-12-15T12:30:36.103Z,-4.28
2022-12-15T12:33:12.818Z,-4.44
2022-12-15T12:35:47.184Z,-4.61
2022-12-15T12:38:21.881Z,-4.70
2022-12-15T12:40:57.029Z,-4.84
2022-12-15T12:43:33.186Z,-4.99
2022-12-15T12:46:26.189Z,-5.03
2022-12-15T12:48:59.484Z,-5.09
2022-12-15T12:51:30.848Z,-5.16
2022-12-15T12:54:01.719Z,-5.23
2022-12-15T12:56:33.560Z,-5.34
2022-12-15T12:59:09.032Z,-5.43
2022-12-15T13:01:40.526Z,-5.51
2022-12-15T13:04:12.971Z,-5.56
2022-12-15T13:06:59.750Z,-5.62
2022-12-15T13:09:40.394Z,-5.73
2022-12-15T13:12:50.815Z,-5.84
2022-12-15T13:15:18.822Z,-5.94
2022-12-15T13:17:52.950Z,-6.04
2022-12-15T13:20:27.720Z,-6.06
2022-12-15T13:23:19.191Z,-6.16
2022-12-15T13:26:03.623Z,-6.19
2022-12-15T13:28:44.169Z,-6.24
2022-12-15T13:31:36.946Z,-6.21
2022-12-15T13:34:14.502Z,-6.24
2022-12-15T13:36:49.265Z,-6.22
2022-12-15T13:39:53.229Z,-6.25
2022-12-15T13:42:38.825Z,-6.32
2022-12-15T13:45:36.935Z,-6.34
2022-12-15T13:48:28.153Z,-6.40
2022-12-15T13:51:04.053Z,-6.45
2022-12-15T13:53:39.463Z,-6.55
2022-12-15T13:56:23.571Z,-6.74
2022-12-15T13:58:57.843Z,-6.86
2022-12-15T14:01:32.629Z,-6.92
2022-12-15T14:04:08.233Z,-7.00
2022-12-15T14:06:41.481Z,-7.15
2022-12-15T14:09:15.071Z,-7.24
2022-12-15T14:11:53.356Z,-7.37
2022-12-15T14:14:26.201Z,-7.46
2022-12-15T14:17:03.083Z,-7.52
2022-12-15T14:19:41.075Z,-7.61
2022-12-15T14:22:28.049Z,-7.70
2022-12-15T14:25:03.980Z,-7.81
2022-12-15T14:27:35.214Z,-7.86
2022-12-15T14:30:22.718Z,-7.95
2022-12-15T14:32:55.637Z,-8.04
2022-12-15T14:35:27.582Z,-8.10
2022-12-15T14:37:59.751Z,-8.20
2022-12-15T14:40:30.473Z,-8.25
2022-12-15T14:43:00.195Z,-8.34
2022-12-15T14:45:32.445Z,-8.39
2022-12-15T14:48:39.548Z,-8.48
2022-12-15T14:50:53.663Z,-8.52
2022-12-15T14:53:27.678Z,-8.51
2022-12-15T14:55:59.603Z,-8.56
2022-12-15T14:58:32.507Z,-8.55
2022-12-15T15:01:03.643Z,-8.60
2022-12-15T15:03:07.048Z,-4.18
2022-12-15T15:03:07.967Z,-6.72
2022-12-15T15:03:37.589Z,-8.67
2022-12-15T15:06:16.292Z,-8.71
2022-12-15T15:08:49.680Z,-8.76
2022-12-15T15:11:23.151Z,-8.88
2022-12-15T15:13:56.300Z,-8.91
2022-12-15T15:16:27.042Z,-8.99
2022-12-15T15:18:58.699Z,-9.02
2022-12-15T15:21:30.533Z,-9.06
2022-12-15T15:24:02.711Z,-9.09
2022-12-15T15:26:33.182Z,-9.15
2022-12-15T15:29:03.641Z,-9.15
2022-12-15T15:31:41.569Z,-9.20
2022-12-15T15:34:12.321Z,-9.25
2022-12-15T15:36:43.043Z,-9.30
2022-12-15T15:39:16.841Z,-9.32
2022-12-15T15:41:46.910Z,-9.31
2022-12-15T15:44:17.125Z,-9.28
2022-12-15T15:46:49.143Z,-9.28
2022-12-15T15:49:20.832Z,-9.26
2022-12-15T15:51:50.962Z,-9.25
2022-12-15T15:54:24.613Z,-9.28
2022-12-15T15:56:54.673Z,-9.24
2022-12-15T15:59:27.141Z,-9.24
2022-12-15T16:01:58.091Z,-9.29
2022-12-15T16:04:28.011Z,-9.25
2022-12-15T16:06:57.981Z,-9.28
2022-12-15T16:09:29.104Z,-9.22
2022-12-15T16:11:59.812Z,-9.20
2022-12-15T16:14:29.372Z,-9.22
2022-12-15T16:17:00.262Z,-9.29
2022-12-15T16:19:33.752Z,-9.36
2022-12-15T16:22:06.362Z,-9.41
2022-12-15T16:24:37.453Z,-9.43
2022-12-15T16:27:07.670Z,-9.45
2022-12-15T16:29:37.522Z,-9.45
2022-12-15T16:32:08.314Z,-9.43
2022-12-15T16:34:39.437Z,-9.44
2022-12-15T16:37:16.243Z,-9.36
2022-12-15T16:39:47.594Z,-9.24
2022-12-15T16:42:17.992Z,-9.31
2022-12-15T16:44:49.121Z,-9.28
2022-12-15T16:47:19.760Z,-9.29
2022-12-15T16:49:49.982Z,-9.30
2022-12-15T16:52:22.768Z,-9.31
2022-12-15T16:54:53.975Z,-9.33
2022-12-15T16:57:25.577Z,-9.39
2022-12-15T16:59:55.408Z,-9.47
2022-12-15T17:02:27.576Z,-9.38
2022-12-15T17:04:58.341Z,-9.34
2022-12-15T17:07:30.450Z,-9.39
2022-12-15T17:10:02.759Z,-9.37
2022-12-15T17:12:34.221Z,-9.30
2022-12-15T17:15:04.220Z,-9.24
2022-12-15T17:17:34.854Z,-9.34
2022-12-15T17:20:28.685Z,-9.32
2022-12-15T17:22:57.054Z,-9.26
2022-12-15T17:26:00.775Z,-9.27
2022-12-15T17:28:22.942Z,-9.25
2022-12-15T17:30:53.009Z,-9.13
2022-12-15T17:33:24.160Z,-8.96
2022-12-15T17:35:54.952Z,-8.82
2022-12-15T17:38:25.554Z,-8.72
2022-12-15T17:40:56.833Z,-8.68
2022-12-15T17:43:33.787Z,-8.59
2022-12-15T17:46:05.595Z,-8.54
2022-12-15T17:48:36.489Z,-8.51
2022-12-15T17:51:14.232Z,-8.46
2022-12-15T17:53:45.144Z,-8.47
2022-12-15T17:56:17.433Z,-8.49
2022-12-15T17:58:47.646Z,-8.42
2022-12-15T18:01:17.421Z,-8.37
2022-12-15T18:03:47.652Z,-8.35
2022-12-15T18:06:18.900Z,-8.30
2022-12-15T18:08:48.926Z,-8.24
2022-12-15T18:11:20.166Z,-8.18
2022-12-15T18:13:50.206Z,-8.07
2022-12-15T18:16:20.013Z,-8.05
2022-12-15T18:18:51.026Z,-8.01
2022-12-15T18:21:20.641Z,-7.94
2022-12-15T18:23:50.713Z,-7.84
2022-12-15T18:26:21.890Z,-7.75
2022-12-15T18:28:52.307Z,-7.71
2022-12-15T18:31:23.977Z,-7.65
2022-12-15T18:33:55.654Z,-7.57
2022-12-15T18:36:28.028Z,-7.53
2022-12-15T18:38:58.131Z,-7.47
2022-12-15T18:41:29.417Z,-7.38
2022-12-15T18:43:59.400Z,-7.31
2022-12-15T18:46:29.129Z,-7.32
2022-12-15T18:49:00.594Z,-7.21
2022-12-15T18:51:31.397Z,-7.23
2022-12-15T18:54:02.920Z,-7.21
2022-12-15T18:56:34.212Z,-7.22
2022-12-15T18:59:04.261Z,-7.21
2022-12-15T19:01:35.145Z,-7.17
2022-12-15T19:04:05.578Z,-7.19
2022-12-15T19:06:36.303Z,-7.17
2022-12-15T19:09:07.455Z,-7.20
2022-12-15T19:11:38.729Z,-7.18
2022-12-15T19:14:34.646Z,-7.16
2022-12-15T19:17:21.618Z,-7.18
2022-12-15T19:20:08.849Z,-7.17
2022-12-15T19:22:38.577Z,-7.16
2022-12-15T19:25:11.579Z,-7.23
2022-12-15T19:27:42.821Z,-7.22
2022-12-15T19:30:16.108Z,-7.23
2022-12-15T19:32:46.331Z,-7.24
2022-12-15T19:35:16.610Z,-7.20
2022-12-15T19:37:47.200Z,-7.18
2022-12-15T19:40:22.567Z,-7.14
2022-12-15T19:42:55.715Z,-7.18
2022-12-15T19:45:26.942Z,-7.16
2022-12-15T19:47:57.071Z,-7.15
2022-12-15T19:50:28.190Z,-7.12
2022-12-15T19:52:59.538Z,-7.11
2022-12-15T19:55:32.863Z,-7.13
2022-12-15T19:58:08.107Z,-7.10
2022-12-15T20:00:39.797Z,-7.11
2022-12-15T20:03:09.584Z,-7.03
2022-12-15T20:05:39.897Z,-7.03
2022-12-15T20:08:11.826Z,-7.05
2022-12-15T20:10:42.299Z,-7.01
2022-12-15T20:13:14.199Z,-6.99
2022-12-15T20:15:44.489Z,-6.99
2022-12-15T20:18:14.209Z,-7.00
2022-12-15T20:20:45.899Z,-6.98
2022-12-15T20:23:17.499Z,-6.97
2022-12-15T20:25:47.882Z,-6.97
2022-12-15T20:28:21.145Z,-6.98
2022-12-15T20:30:51.238Z,-6.95
2022-12-15T20:33:21.295Z,-6.96
2022-12-15T20:35:51.937Z,-6.96
2022-12-15T20:38:25.246Z,-6.95
2022-12-15T20:40:55.477Z,-6.96
2022-12-15T20:43:27.400Z,-6.98
2022-12-15T20:46:01.150Z,-6.97
2022-12-15T20:48:31.573Z,-6.96
2022-12-15T20:51:05.838Z,-6.92
2022-12-15T20:53:39.275Z,-6.91
2022-12-15T20:56:09.638Z,-6.90
2022-12-15T20:58:40.729Z,-6.90
2022-12-15T21:01:21.168Z,-6.90
2022-12-15T21:03:52.013Z,-6.90
2022-12-15T21:06:22.388Z,-6.87
2022-12-15T21:08:52.526Z,-6.91
2022-12-15T21:11:24.601Z,-6.87
2022-12-15T21:14:04.057Z,-6.85
2022-12-15T21:16:34.274Z,-6.83
2022-12-15T21:19:22.322Z,-6.82
2022-12-15T21:21:55.897Z,-6.77
2022-12-15T21:24:26.595Z,-6.77
2022-12-15T21:26:56.844Z,-6.73
2022-12-15T21:29:29.243Z,-6.69
2022-12-15T21:31:59.262Z,-6.68
2022-12-15T21:34:28.936Z,-6.68
2022-12-15T21:36:59.282Z,-6.67
2022-12-15T21:39:31.281Z,-6.66
2022-12-15T21:42:02.212Z,-6.60
2022-12-15T21:44:33.336Z,-6.57
2022-12-15T21:47:03.242Z,-6.58
2022-12-15T21:49:31.865Z,-6.55
2022-12-15T21:52:02.443Z,-6.56
2022-12-15T21:54:33.316Z,-6.52
2022-12-15T21:57:04.184Z,-6.50
2022-12-15T21:59:35.292Z,-6.49
2022-12-15T22:02:17.409Z,-6.47
2022-12-15T22:04:49.123Z,-6.48
2022-12-15T22:07:19.286Z,-6.48
2022-12-15T22:09:48.955Z,-6.46
2022-12-15T22:12:21.034Z,-6.48
2022-12-15T22:14:52.303Z,-6.43
2022-12-15T22:17:22.898Z,-6.43
2022-12-15T22:19:52.540Z,-6.42
2022-12-15T22:22:24.738Z,-6.41
2022-12-15T22:24:57.933Z,-6.39
2022-12-15T22:27:28.313Z,-6.38
2022-12-15T22:29:59.382Z,-6.35
2022-12-15T22:32:30.593Z,-6.33
2022-12-15T22:35:00.155Z,-6.30
2022-12-15T22:37:30.143Z,-6.32
2022-12-15T22:39:59.666Z,-6.30
2022-12-15T22:42:29.576Z,-6.27
2022-12-15T22:45:00.743Z,-6.26
2022-12-15T22:47:30.753Z,-6.27
2022-12-15T22:50:00.417Z,-6.20
2022-12-15T22:52:30.413Z,-6.21
2022-12-15T22:55:00.171Z,-6.21
2022-12-15T22:57:30.634Z,-6.21
2022-12-15T23:00:04.423Z,-6.22
2022-12-15T23:02:35.774Z,-6.19
2022-12-15T23:05:05.999Z,-6.17
2022-12-15T23:07:36.361Z,-6.21
2022-12-15T23:10:24.090Z,-6.20
2022-12-15T23:12:54.874Z,-6.18
2022-12-15T23:15:44.155Z,-6.17
2022-12-15T23:18:14.570Z,-6.18
2022-12-15T23:20:44.331Z,-6.17
2022-12-15T23:23:14.259Z,-6.18
2022-12-15T23:25:44.062Z,-6.19
2022-12-15T23:28:14.373Z,-6.19
2022-12-15T23:30:49.364Z,-6.20
2022-12-15T23:33:19.732Z,-6.17
2022-12-15T23:35:50.403Z,-6.22
2022-12-15T23:38:20.351Z,-6.24
2022-12-15T23:40:52.764Z,-6.18
2022-12-15T23:43:23.562Z,-6.20
2022-12-15T23:46:01.881Z,-6.21
2022-12-15T23:48:32.961Z,-6.19
2022-12-15T23:51:07.181Z,-6.19
2022-12-15T23:53:39.200Z,-6.19
2022-12-15T23:56:10.753Z,-6.18
2022-12-15T23:58:41.204Z,-6.19
